Time;durP1;ratioP1;P1;durP2;ratioP2;P2;SDS_P1;SDS_P2;PMS_P1;PMS_P2;Temp;Humidity;BMP_temperature;BMP_pressure;BME280_temperature;BME280_humidity;BME280_pressure;Samples;Min_cycle;Max_cycle;Signal;HPM_P1;HPM_P2
2023/10/28 00:03:22;;;;;;;;;;;;;;;17.24;59.61;97714.47;10330206;28;981;-76
2023/10/28 00:08:18;;;;;;;;;;;;;;;17.21;59.51;97712.06;10329451;28;956;-77
2023/10/28 00:13:14;;;;;;;;;;;;;;;17.20;59.80;97718.28;10328320;28;1887;-76
2023/10/28 00:18:10;;;;;;;;;;;;;;;17.19;59.54;97721.88;10329051;28;881;-77
2023/10/28 00:23:06;;;;;;;;;;;;;;;17.19;59.60;97724.50;10329078;28;798;-76
2023/10/28 00:28:03;;;;;;;;;;;;;;;17.18;59.55;97714.06;10329191;28;897;-76
2023/10/28 00:32:59;;;;;;;;;;;;;;;17.17;59.81;97718.50;10327637;28;1985;-77
2023/10/28 00:37:55;;;;;;;;;;;;;;;17.15;59.65;97727.47;10328939;28;766;-77
2023/10/28 00:42:51;;;;;;;;;;;;;;;17.15;59.85;97730.94;10328033;28;893;-76
2023/10/28 00:47:52;;;;;;;;;;;;;;;17.15;59.57;97720.41;10328409;28;857;-77
2023/10/28 00:52:48;;;;;;;;;;;;;;;17.14;59.93;97717.88;10327541;28;1898;-77
2023/10/28 00:57:44;;;;;;;;;;;;;;;17.12;59.95;97715.34;10327539;28;765;-78
2023/10/28 01:02:40;;;;;;;;;;;;;;;17.11;59.81;97707.56;10327240;28;886;-76
2023/10/28 01:07:36;;;;;;;;;;;;;;;17.09;59.89;97703.25;10327072;28;962;-77
2023/10/28 01:12:31;;;;;;;;;;;;;;;17.09;59.83;97707.69;10327335;28;1898;-77
2023/10/28 01:17:27;;;;;;;;;;;;;;;17.07;59.94;97702.53;10327908;28;888;-77
2023/10/28 01:22:29;;;;;;;;;;;;;;;17.05;59.80;97714.94;10326951;28;845;-77
2023/10/28 01:27:26;;;;;;;;;;;;;;;17.04;59.81;97701.91;10326956;28;957;-77
2023/10/28 01:32:22;;;;;;;;;;;;;;;17.03;59.92;97706.34;10326073;28;1906;-76
2023/10/28 01:37:18;;;;;;;;;;;;;;;17.02;59.96;97709.06;10326046;28;1235;-77
2023/10/28 01:42:13;;;;;;;;;;;;;;;17.00;59.84;97716.25;10325940;28;793;-77
2023/10/28 01:47:09;;;;;;;;;;;;;;;17.00;59.64;97716.25;10325856;28;874;-77
2023/10/28 01:52:08;;;;;;;;;;;;;;;16.97;59.77;97721.72;10325672;28;849;-76
2023/10/28 01:57:07;;;;;;;;;;;;;;;16.98;59.80;97731.31;10326137;28;1889;-76
2023/10/28 02:02:03;;;;;;;;;;;;;;;16.96;59.67;97728.78;10325523;28;806;-76
2023/10/28 02:06:59;;;;;;;;;;;;;;;16.97;59.85;97727.00;10325434;28;830;-77
2023/10/28 02:11:55;;;;;;;;;;;;;;;16.96;59.88;97734.06;10324680;28;921;-77
2023/10/28 02:16:51;;;;;;;;;;;;;;;16.96;59.72;97727.94;10325706;28;1955;-77
2023/10/28 02:21:47;;;;;;;;;;;;;;;16.94;59.67;97733.31;10325713;28;790;-77
2023/10/28 02:26:43;;;;;;;;;;;;;;;16.94;59.72;97735.94;10324437;28;1039;-77
2023/10/28 02:31:39;;;;;;;;;;;;;;;16.92;59.82;97729.94;10325020;28;1156;-77
2023/10/28 02:36:35;;;;;;;;;;;;;;;16.91;59.71;97736.16;10331115;28;1926;-77
2023/10/28 02:41:30;;;;;;;;;;;;;;;16.92;59.83;97729.09;10333389;28;906;-77
2023/10/28 02:46:26;;;;;;;;;;;;;;;16.92;59.77;97734.38;10333403;28;877;-77
2023/10/28 02:51:22;;;;;;;;;;;;;;;16.91;59.86;97737.97;10332504;28;948;-77
2023/10/28 02:56:18;;;;;;;;;;;;;;;16.91;59.86;97732.72;10332163;28;1898;-77
2023/10/28 03:01:14;;;;;;;;;;;;;;;16.90;59.75;97737.13;10331995;28;846;-77
2023/10/28 03:06:10;;;;;;;;;;;;;;;16.88;59.89;97735.56;10332534;28;856;-77
2023/10/28 03:11:06;;;;;;;;;;;;;;;16.89;59.81;97745.13;10331607;28;944;-77
2023/10/28 03:16:04;;;;;;;;;;;;;;;16.85;59.73;97740.09;10331941;28;1964;-76
2023/10/28 03:20:59;;;;;;;;;;;;;;;16.84;59.84;97733.13;10331605;28;857;-77
2023/10/28 03:25:55;;;;;;;;;;;;;;;16.84;59.96;97732.28;10331257;28;778;-77
2023/10/28 03:30:51;;;;;;;;;;;;;;;16.83;59.71;97738.50;10331339;28;1186;-76
2023/10/28 03:35:47;;;;;;;;;;;;;;;16.82;59.89;97740.31;10330761;28;2027;-76
2023/10/28 03:40:43;;;;;;;;;;;;;;;16.83;59.80;97736.72;10330012;28;826;-76
2023/10/28 03:45:39;;;;;;;;;;;;;;;16.81;59.78;97741.25;10329617;28;956;-77
2023/10/28 03:50:35;;;;;;;;;;;;;;;16.81;59.81;97746.50;10330787;28;857;-76
2023/10/28 03:55:31;;;;;;;;;;;;;;;16.81;59.65;97753.56;10330529;28;1893;-77
2023/10/28 04:00:27;;;;;;;;;;;;;;;16.79;59.94;97756.31;10322503;28;1202;-76
2023/10/28 04:05:23;;;;;;;;;;;;;;;16.79;59.67;97761.59;10288872;28;905;-76
2023/10/28 04:10:19;;;;;;;;;;;;;;;16.78;59.78;97752.00;10289070;28;949;-76
2023/10/28 04:15:16;;;;;;;;;;;;;;;16.79;59.87;97756.31;10289229;28;1890;-77
2023/10/28 04:20:12;;;;;;;;;;;;;;;16.86;59.49;97768.06;10288462;28;893;-77
2023/10/28 04:25:08;;;;;;;;;;;;;;;16.95;59.29;97768.38;10288723;28;876;-77
2023/10/28 04:30:04;;;;;;;;;;;;;;;16.96;58.92;97762.16;10287073;28;1224;-78
2023/10/28 04:35:00;;;;;;;;;;;;;;;17.01;58.96;97766.16;10288640;28;1913;-78
2023/10/28 04:39:57;;;;;;;;;;;;;;;17.04;58.99;97768.56;10288442;28;830;-77
2023/10/28 04:44:53;;;;;;;;;;;;;;;17.09;58.95;97773.50;10286897;28;878;-78
2023/10/28 04:49:49;;;;;;;;;;;;;;;17.18;58.63;97769.34;10287247;28;822;-77
2023/10/28 04:54:45;;;;;;;;;;;;;;;17.23;58.66;97773.31;10287468;28;1948;-78
2023/10/28 04:59:41;;;;;;;;;;;;;;;17.29;58.48;97772.91;10286987;28;882;-78
2023/10/28 05:04:37;;;;;;;;;;;;;;;17.36;58.28;97769.81;10286074;28;889;-78
2023/10/28 05:09:33;;;;;;;;;;;;;;;17.39;57.97;97766.94;10285825;28;860;-77
2023/10/28 05:14:29;;;;;;;;;;;;;;;17.43;58.06;97766.63;10286560;28;1957;-77
2023/10/28 05:19:25;;;;;;;;;;;;;;;17.45;58.09;97763.88;10286832;28;921;-76
2023/10/28 05:24:21;;;;;;;;;;;;;;;17.48;58.15;97763.66;10286655;28;800;-76
2023/10/28 05:29:17;;;;;;;;;;;;;;;17.51;57.81;97758.16;10285482;28;1052;-76
2023/10/28 05:34:13;;;;;;;;;;;;;;;17.55;57.88;97764.88;10285543;28;1981;-77
2023/10/28 05:39:11;;;;;;;;;;;;;;;17.55;57.75;97767.50;10285377;28;1050;-79
2023/10/28 05:44:07;;;;;;;;;;;;;;;17.59;57.86;97768.97;10285162;28;916;-73
2023/10/28 05:49:02;;;;;;;;;;;;;;;17.62;57.93;97765.25;10314572;28;983;-73
2023/10/28 05:53:58;;;;;;;;;;;;;;;17.65;57.84;97771.13;10325538;28;1918;-72
2023/10/28 05:58:57;;;;;;;;;;;;;;;17.67;57.77;97776.31;10326258;28;794;-71
2023/10/28 06:03:53;;;;;;;;;;;;;;;17.69;57.83;97772.59;10325566;28;977;-72
2023/10/28 06:08:49;;;;;;;;;;;;;;;17.70;57.93;97776.91;10324678;28;992;-73
2023/10/28 06:13:44;;;;;;;;;;;;;;;17.72;58.18;97780.28;10325104;28;1959;-73
2023/10/28 06:18:40;;;;;;;;;;;;;;;17.78;58.39;97781.59;10324142;28;899;-72
2023/10/28 06:23:39;;;;;;;;;;;;;;;17.78;58.39;97786.03;10324509;28;849;-72
2023/10/28 06:28:35;;;;;;;;;;;;;;;17.79;58.37;97790.34;10325592;28;775;-72
2023/10/28 06:33:30;;;;;;;;;;;;;;;17.78;58.58;97791.31;10325400;28;1984;-72
2023/10/28 06:38:28;;;;;;;;;;;;;;;17.79;58.74;97790.34;10324827;28;1396;-73
2023/10/28 06:43:24;;;;;;;;;;;;;;;17.75;58.84;97801.13;10324785;28;831;-72
2023/10/28 06:48:20;;;;;;;;;;;;;;;17.72;58.74;97796.09;10324663;28;912;-72
2023/10/28 06:53:16;;;;;;;;;;;;;;;17.70;58.89;97805.88;10323902;28;1902;-73
2023/10/28 06:58:12;;;;;;;;;;;;;;;17.67;58.79;97800.03;10324452;28;814;-80
2023/10/28 07:03:08;;;;;;;;;;;;;;;17.63;58.74;97809.09;10323682;28;900;-73
2023/10/28 07:08:04;;;;;;;;;;;;;;;17.62;58.56;97817.94;10324212;28;901;-72
2023/10/28 07:13:00;;;;;;;;;;;;;;;17.61;58.85;97826.81;10324233;28;1902;-72
2023/10/28 07:17:56;;;;;;;;;;;;;;;17.65;58.78;97818.56;10324612;28;854;-72
2023/10/28 07:22:52;;;;;;;;;;;;;;;17.70;58.76;97815.59;10329998;28;878;-70
2023/10/28 07:27:48;;;;;;;;;;;;;;;17.72;58.47;97832.97;10331694;28;818;-72
2023/10/28 07:32:44;;;;;;;;;;;;;;;17.72;58.74;97827.69;10329848;28;1914;-72
2023/10/28 07:37:40;;;;;;;;;;;;;;;17.73;58.62;97832.00;10330775;28;799;-71
2023/10/28 07:42:36;;;;;;;;;;;;;;;17.74;58.73;97825.81;10330547;28;771;-74
2023/10/28 07:47:32;;;;;;;;;;;;;;;17.74;58.66;97825.81;10326863;28;1160;-74
2023/10/28 07:52:28;;;;;;;;;;;;;;;17.76;58.45;97828.31;10328920;28;968;-76
2023/10/28 07:57:24;;;;;;;;;;;;;;;17.80;58.60;97826.34;10329263;28;1951;-72
2023/10/28 08:02:19;;;;;;;;;;;;;;;17.81;58.44;97835.91;10329708;28;906;-71
2023/10/28 08:07:15;;;;;;;;;;;;;;;17.80;58.66;97836.88;10329435;28;960;-72
2023/10/28 08:12:11;;;;;;;;;;;;;;;17.82;58.18;97829.72;10329818;28;949;-70
2023/10/28 08:17:08;;;;;;;;;;;;;;;17.83;58.36;97841.91;10328952;28;1957;-70
2023/10/28 08:22:04;;;;;;;;;;;;;;;17.84;58.15;97838.31;10328231;28;1047;-69
2023/10/28 08:27:00;;;;;;;;;;;;;;;17.82;58.10;97838.44;10328108;28;806;-70
2023/10/28 08:31:57;;;;;;;;;;;;;;;17.80;58.75;97847.41;10327571;28;1408;-69
2023/10/28 08:36:53;;;;;;;;;;;;;;;17.78;59.01;97860.66;10328241;28;1906;-76
2023/10/28 08:41:49;;;;;;;;;;;;;;;17.75;59.06;97872.28;10327767;28;770;-69
2023/10/28 08:46:45;;;;;;;;;;;;;;;17.74;58.96;97870.59;10328186;28;1176;-70
2023/10/28 08:51:40;;;;;;;;;;;;;;;17.72;59.22;97869.88;10327292;28;914;-69
2023/10/28 08:56:36;;;;;;;;;;;;;;;17.74;58.96;97875.03;10328262;28;1945;-70
2023/10/28 09:01:32;;;;;;;;;;;;;;;17.75;59.04;97890.72;10326066;28;1077;-69
2023/10/28 09:06:28;;;;;;;;;;;;;;;17.51;59.37;97884.59;10327139;28;861;-69
2023/10/28 09:11:24;;;;;;;;;;;;;;;17.44;58.85;97885.97;10326770;28;879;-73
2023/10/28 09:16:20;;;;;;;;;;;;;;;17.63;58.19;97904.78;10327084;28;1973;-70
2023/10/28 09:21:16;;;;;;;;;;;;;;;17.70;57.83;97903.38;10326250;28;875;-72
2023/10/28 09:26:11;;;;;;;;;;;;;;;17.71;58.18;97913.00;10326399;28;921;-70
2023/10/28 09:31:07;;;;;;;;;;;;;;;17.77;58.20;97919.59;10324913;28;1132;-70
2023/10/28 09:36:04;;;;;;;;;;;;;;;17.77;58.10;97926.66;10326122;28;1965;-69
2023/10/28 09:41:01;;;;;;;;;;;;;;;17.81;58.12;97925.50;10325840;28;928;-73
2023/10/28 09:45:57;;;;;;;;;;;;;;;17.82;58.09;97927.22;10325446;28;984;-69
2023/10/28 09:50:53;;;;;;;;;;;;;;;17.84;58.22;97930.56;10324144;28;745;-70
2023/10/28 09:55:49;;;;;;;;;;;;;;;17.84;57.98;97925.28;10325441;28;1957;-73
2023/10/28 10:00:46;;;;;;;;;;;;;;;17.88;58.00;97932.03;10325014;28;788;-70
2023/10/28 10:05:42;;;;;;;;;;;;;;;17.92;58.27;97925.56;10325315;28;822;-69
2023/10/28 10:10:38;;;;;;;;;;;;;;;17.88;58.42;97922.31;10325223;28;814;-69
2023/10/28 10:15:34;;;;;;;;;;;;;;;17.88;58.53;97929.41;10324765;28;1890;-69
2023/10/28 10:20:31;;;;;;;;;;;;;;;17.90;58.27;97928.34;10325399;28;884;-69
2023/10/28 10:25:27;;;;;;;;;;;;;;;17.94;58.22;97924.50;10324447;28;1004;-71
2023/10/28 10:30:22;;;;;;;;;;;;;;;17.93;58.39;97922.00;10325198;28;1287;-71
2023/10/28 10:35:18;;;;;;;;;;;;;;;17.94;58.17;97918.41;10324826;28;1968;-71
2023/10/28 10:40:14;;;;;;;;;;;;;;;17.95;58.19;97920.94;10324618;28;865;-71
2023/10/28 10:45:10;;;;;;;;;;;;;;;17.94;58.03;97921.88;10325328;28;866;-71
2023/10/28 10:50:06;;;;;;;;;;;;;;;17.93;58.16;97933.38;10324166;28;858;-72
2023/10/28 10:55:04;;;;;;;;;;;;;;;17.96;58.07;97935.78;10325777;28;1898;-77
2023/10/28 11:00:00;;;;;;;;;;;;;;;17.93;58.23;97938.66;10332568;28;901;-73
2023/10/28 11:04:58;;;;;;;;;;;;;;;17.93;58.12;97928.09;10331258;28;1049;-74
2023/10/28 11:09:59;;;;;;;;;;;;;;;17.96;58.08;97929.69;10331976;28;833;-74
2023/10/28 11:14:55;;;;;;;;;;;;;;;17.99;57.88;97918.91;10331114;28;1956;-74
2023/10/28 11:19:51;;;;;;;;;;;;;;;18.03;57.92;97906.34;10331777;28;813;-74
2023/10/28 11:24:47;;;;;;;;;;;;;;;18.05;57.84;97900.03;10330440;28;1245;-74
2023/10/28 11:29:43;;;;;;;;;;;;;;;18.01;57.77;97893.28;10330748;28;1144;-74
2023/10/28 11:34:42;;;;;;;;;;;;;;;18.03;58.00;97894.00;10331211;28;1919;-74
2023/10/28 11:39:38;;;;;;;;;;;;;;;18.04;57.92;97897.47;10330850;28;889;-73
2023/10/28 11:44:33;;;;;;;;;;;;;;;18.07;57.81;97898.09;10330279;28;905;-73
2023/10/28 11:49:29;;;;;;;;;;;;;;;18.09;57.66;97901.47;10330054;28;822;-73
2023/10/28 11:54:25;;;;;;;;;;;;;;;18.13;57.66;97900.28;10329944;28;1898;-73
2023/10/28 11:59:21;;;;;;;;;;;;;;;18.15;57.91;97882.53;10330341;28;829;-75
2023/10/28 12:04:17;;;;;;;;;;;;;;;18.22;58.03;97890.00;10329585;28;871;-75
2023/10/28 12:09:14;;;;;;;;;;;;;;;18.31;57.74;97889.31;10328256;28;902;-73
2023/10/28 12:14:10;;;;;;;;;;;;;;;18.34;57.26;97889.09;10329532;28;1959;-73
2023/10/28 12:19:06;;;;;;;;;;;;;;;18.33;57.12;97888.25;10329121;28;854;-74
2023/10/28 12:24:03;;;;;;;;;;;;;;;18.28;57.32;97893.00;10329289;28;864;-73
2023/10/28 12:28:58;;;;;;;;;;;;;;;18.30;56.96;97891.09;10328362;28;1287;-71
2023/10/28 12:33:54;;;;;;;;;;;;;;;18.34;57.07;97897.03;10328251;28;1918;-75
2023/10/28 12:38:50;;;;;;;;;;;;;;;18.41;56.62;97898.22;10327737;28;1094;-75
2023/10/28 12:43:47;;;;;;;;;;;;;;;18.50;56.29;97902.81;10327965;28;870;-76
2023/10/28 12:48:42;;;;;;;;;;;;;;;18.42;56.78;97899.06;10327844;28;932;-76
2023/10/28 12:53:40;;;;;;;;;;;;;;;18.34;56.49;97904.94;10327465;28;1957;-76
2023/10/28 12:58:36;;;;;;;;;;;;;;;18.30;56.99;97914.00;10327338;28;834;-75
2023/10/28 13:03:32;;;;;;;;;;;;;;;18.26;57.04;97917.81;10327200;28;1001;-75
2023/10/28 13:08:28;;;;;;;;;;;;;;;18.32;57.06;97920.03;10327526;28;957;-74
2023/10/28 13:13:23;;;;;;;;;;;;;;;18.31;57.22;97918.31;10317954;28;1965;-72
2023/10/28 13:18:20;;;;;;;;;;;;;;;18.25;57.08;97922.25;10285501;28;909;-72
2023/10/28 13:23:16;;;;;;;;;;;;;;;18.26;57.28;97920.44;10285023;28;920;-72
2023/10/28 13:28:12;;;;;;;;;;;;;;;18.30;57.00;97925.41;10283867;28;854;-73
2023/10/28 13:33:11;;;;;;;;;;;;;;;18.53;55.88;97923.69;10284649;28;1922;-72
2023/10/28 13:38:07;;;;;;;;;;;;;;;18.83;55.53;97920.53;10285279;28;806;-74
2023/10/28 13:43:03;;;;;;;;;;;;;;;18.94;55.78;97927.66;10284938;28;973;-74
2023/10/28 13:47:59;;;;;;;;;;;;;;;18.95;55.92;97925.84;10284889;28;845;-76
2023/10/28 13:52:55;;;;;;;;;;;;;;;18.78;56.32;97924.47;10284955;28;1871;-74
2023/10/28 13:57:51;;;;;;;;;;;;;;;18.78;56.54;97914.75;10284969;28;799;-73
2023/10/28 14:02:47;;;;;;;;;;;;;;;18.82;56.41;97918.03;10284809;28;916;-75
2023/10/28 14:07:43;;;;;;;;;;;;;;;18.68;56.80;97923.47;10284261;28;944;-75
2023/10/28 14:12:41;;;;;;;;;;;;;;;18.71;57.00;97925.91;10284566;28;771;-76
2023/10/28 14:17:37;;;;;;;;;;;;;;;18.68;57.00;97937.53;10283965;28;1969;-75
2023/10/28 14:22:33;;;;;;;;;;;;;;;18.75;56.98;97940.56;10284210;28;836;-74
2023/10/28 14:27:29;;;;;;;;;;;;;;;18.66;57.25;97941.25;10283896;28;862;-77
2023/10/28 14:32:24;;;;;;;;;;;;;;;19.01;56.33;97942.03;10290811;28;1255;-77
2023/10/28 14:37:20;;;;;;;;;;;;;;;19.18;56.07;97934.63;10291726;28;1926;-77
2023/10/28 14:42:16;;;;;;;;;;;;;;;19.01;56.50;97935.94;10292738;28;850;-77
2023/10/28 14:47:12;;;;;;;;;;;;;;;18.81;57.24;97948.00;10292177;28;850;-77
2023/10/28 14:52:08;;;;;;;;;;;;;;;18.83;57.19;97943.44;10291788;28;917;-77
2023/10/28 14:57:05;;;;;;;;;;;;;;;18.79;57.53;97944.66;10291737;28;1903;-77
2023/10/28 15:02:01;;;;;;;;;;;;;;;18.73;57.48;97942.44;10299066;28;1002;-77
2023/10/28 15:06:57;;;;;;;;;;;;;;;18.66;57.79;97933.31;10332271;28;838;-77
2023/10/28 15:11:52;;;;;;;;;;;;;;;18.63;57.90;97931.75;10331751;28;838;-78
2023/10/28 15:16:49;;;;;;;;;;;;;;;18.68;57.95;97939.28;10331234;28;1894;-75
2023/10/28 15:21:44;;;;;;;;;;;;;;;18.62;58.08;97928.25;10331712;28;798;-73
2023/10/28 15:26:40;;;;;;;;;;;;;;;18.60;57.98;97931.97;10330989;28;767;-76
2023/10/28 15:31:36;;;;;;;;;;;;;;;18.58;58.46;97939.19;10331656;28;1262;-72
2023/10/28 15:36:32;;;;;;;;;;;;;;;18.59;58.34;97943.47;10330374;28;1918;-73
2023/10/28 15:41:28;;;;;;;;;;;;;;;18.52;58.13;97935.22;10330304;28;927;-73
2023/10/28 15:46:24;;;;;;;;;;;;;;;18.50;58.13;97926.56;10330637;28;830;-72
2023/10/28 15:51:22;;;;;;;;;;;;;;;18.54;58.10;97921.88;10330461;28;861;-73
2023/10/28 15:56:20;;;;;;;;;;;;;;;18.53;57.94;97918.41;10330466;28;2014;-74
2023/10/28 16:01:17;;;;;;;;;;;;;;;18.50;58.15;97936.28;10329792;28;941;-73
2023/10/28 16:06:12;;;;;;;;;;;;;;;18.45;58.16;97939.25;10329532;28;874;-74
2023/10/28 16:11:10;;;;;;;;;;;;;;;18.53;57.87;97930.75;10329413;28;945;-74
2023/10/28 16:16:07;;;;;;;;;;;;;;;18.52;58.13;97935.22;10329016;28;1894;-74
2023/10/28 16:21:02;;;;;;;;;;;;;;;18.50;58.26;97937.09;10329583;28;873;-75
2023/10/28 16:25:58;;;;;;;;;;;;;;;18.49;58.33;97940.69;10328643;28;866;-74
2023/10/28 16:30:54;;;;;;;;;;;;;;;18.52;58.24;97935.22;10328881;28;1172;-74
2023/10/28 16:35:51;;;;;;;;;;;;;;;18.52;58.37;97931.69;10328240;28;1910;-74
2023/10/28 16:40:48;;;;;;;;;;;;;;;18.49;58.40;97924.84;10328066;28;877;-74
2023/10/28 16:45:44;;;;;;;;;;;;;;;18.49;58.32;97938.03;10328842;28;871;-74
2023/10/28 16:50:40;;;;;;;;;;;;;;;18.54;58.37;97941.19;10326963;28;936;-74
2023/10/28 16:55:36;;;;;;;;;;;;;;;18.51;58.54;97933.50;10327848;28;1874;-75
2023/10/28 17:00:34;;;;;;;;;;;;;;;18.53;58.24;97933.41;10327082;28;944;-75
2023/10/28 17:05:29;;;;;;;;;;;;;;;18.53;58.39;97933.41;10326982;28;1045;-75
2023/10/28 17:10:25;;;;;;;;;;;;;;;18.57;58.47;97942.75;10326770;28;907;-77
2023/10/28 17:15:22;;;;;;;;;;;;;;;18.59;58.55;97956.69;10327041;28;1894;-76
2023/10/28 17:20:18;;;;;;;;;;;;;;;18.56;58.59;97963.03;10325956;28;833;-75
2023/10/28 17:25:14;;;;;;;;;;;;;;;18.58;58.57;97976.94;10321222;28;913;-75
2023/10/28 17:30:10;;;;;;;;;;;;;;;18.60;58.47;97980.31;10285588;28;1383;-75
2023/10/28 17:35:07;;;;;;;;;;;;;;;18.58;58.49;97976.94;10283105;28;1914;-75
2023/10/28 17:40:04;;;;;;;;;;;;;;;18.55;58.59;97964.00;10285141;28;866;-80
2023/10/28 17:45:03;;;;;;;;;;;;;;;18.47;58.66;97974.28;10285422;28;774;-81
2023/10/28 17:49:59;;;;;;;;;;;;;;;18.45;58.85;97988.53;10285112;28;1074;-82
2023/10/28 17:54:55;;;;;;;;;;;;;;;18.40;58.74;97970.41;10284973;28;1902;-79
2023/10/28 17:59:51;;;;;;;;;;;;;;;18.37;58.69;97979.38;10283861;28;956;-80
2023/10/28 18:04:47;;;;;;;;;;;;;;;18.41;58.76;97974.72;10284341;28;877;-81
2023/10/28 18:09:44;;;;;;;;;;;;;;;18.44;58.48;97971.00;10284203;28;1174;-80
2023/10/28 18:14:39;;;;;;;;;;;;;;;18.40;58.58;97979.16;10284409;28;1963;-79
2023/10/28 18:19:36;;;;;;;;;;;;;;;18.38;58.46;97988.13;10284065;28;862;-80
2023/10/28 18:24:32;;;;;;;;;;;;;;;18.40;58.53;97994.16;10284945;28;872;-81
2023/10/28 18:29:31;;;;;;;;;;;;;;;18.43;58.42;97982.53;10283663;28;1368;-81
2023/10/28 18:34:26;;;;;;;;;;;;;;;18.41;58.64;97969.44;10284151;28;1910;-81
2023/10/28 18:39:22;;;;;;;;;;;;;;;18.41;58.50;97974.72;10283748;28;839;-79
2023/10/28 18:44:18;;;;;;;;;;;;;;;18.39;58.38;97973.97;10284054;28;861;-79
2023/10/28 18:49:14;;;;;;;;;;;;;;;18.40;58.43;97976.50;10283478;28;874;-79
2023/10/28 18:54:10;;;;;;;;;;;;;;;18.39;58.42;97966.06;10283871;28;1893;-83
2023/10/28 18:59:06;;;;;;;;;;;;;;;18.37;58.50;97963.56;10283319;28;913;-80
2023/10/28 19:04:02;;;;;;;;;;;;;;;18.38;58.33;97959.13;10307995;28;1144;-80
2023/10/28 19:09:01;;;;;;;;;;;;;;;18.40;58.25;97962.50;10324444;28;818;-82
2023/10/28 19:13:57;;;;;;;;;;;;;;;18.41;58.21;97956.25;10324477;28;1906;-83
2023/10/28 19:18:53;;;;;;;;;;;;;;;18.40;58.22;97950.13;10330523;28;913;-83
2023/10/28 19:23:49;;;;;;;;;;;;;;;18.36;58.28;97946.03;10331470;28;1498;-82
2023/10/28 19:28:45;;;;;;;;;;;;;;;18.41;58.28;97940.41;10330866;28;858;-82
2023/10/28 19:33:41;;;;;;;;;;;;;;;18.44;58.18;97936.72;10330682;28;1913;-82
2023/10/28 19:38:39;;;;;;;;;;;;;;;18.42;58.40;97933.34;10331065;28;815;-82
2023/10/28 19:43:35;;;;;;;;;;;;;;;18.40;58.32;97933.47;10330599;28;834;-82
2023/10/28 19:48:31;;;;;;;;;;;;;;;18.37;58.48;97925.78;10330994;28;801;-82
2023/10/28 19:53:27;;;;;;;;;;;;;;;18.37;58.63;97917.88;10330087;28;1897;-82
2023/10/28 19:58:24;;;;;;;;;;;;;;;18.36;58.64;97910.91;10330558;28;770;-82
2023/10/28 20:03:20;;;;;;;;;;;;;;;18.34;58.65;97903.13;10329710;28;1172;-83
2023/10/28 20:08:16;;;;;;;;;;;;;;;18.33;58.64;97903.22;10330253;28;883;-81
2023/10/28 20:13:13;;;;;;;;;;;;;;;18.31;58.77;97902.50;10328824;28;1897;-82
2023/10/28 20:18:11;;;;;;;;;;;;;;;18.29;58.73;97891.25;10329258;28;876;-81
2023/10/28 20:23:07;;;;;;;;;;;;;;;18.30;58.57;97903.47;10329131;28;906;-78
2023/10/28 20:28:03;;;;;;;;;;;;;;;18.28;58.79;97898.28;10327987;28;944;-79
2023/10/28 20:32:59;;;;;;;;;;;;;;;18.28;58.89;97892.19;10329197;28;1909;-79
2023/10/28 20:37:55;;;;;;;;;;;;;;;18.30;58.69;97890.28;10328970;28;790;-78
2023/10/28 20:42:51;;;;;;;;;;;;;;;18.30;58.73;97880.56;10327722;28;917;-74
2023/10/28 20:47:47;;;;;;;;;;;;;;;18.30;58.79;97887.63;10328225;28;964;-79
2023/10/28 20:52:43;;;;;;;;;;;;;;;18.28;58.78;97882.47;10327953;28;952;-78
2023/10/28 20:57:39;;;;;;;;;;;;;;;18.26;58.88;97873.84;10327281;28;1897;-78
2023/10/28 21:02:35;;;;;;;;;;;;;;;18.21;58.86;97877.75;10328171;28;881;-78
2023/10/28 21:07:31;;;;;;;;;;;;;;;18.20;58.92;97874.28;10327939;28;1019;-79
2023/10/28 21:12:27;;;;;;;;;;;;;;;18.16;58.96;97876.31;10327154;28;961;-79
2023/10/28 21:17:23;;;;;;;;;;;;;;;18.14;58.93;97870.31;10326350;28;1902;-78
2023/10/28 21:22:18;;;;;;;;;;;;;;;18.12;58.86;97869.59;10326780;28;842;-78
2023/10/28 21:27:14;;;;;;;;;;;;;;;18.10;58.86;97866.25;10326697;28;933;-78
2023/10/28 21:32:10;;;;;;;;;;;;;;;18.06;58.90;97854.22;10326478;28;1235;-78
2023/10/28 21:37:07;;;;;;;;;;;;;;;18.02;59.07;97839.59;10326285;28;1914;-78
2023/10/28 21:42:03;;;;;;;;;;;;;;;17.99;59.19;97831.91;10325877;28;791;-78
2023/10/28 21:46:59;;;;;;;;;;;;;;;17.99;59.19;97821.38;10326684;28;861;-78
2023/10/28 21:51:54;;;;;;;;;;;;;;;17.96;59.14;97816.34;10326533;28;771;-78
2023/10/28 21:56:50;;;;;;;;;;;;;;;17.94;58.94;97819.06;10325914;28;1897;-78
2023/10/28 22:01:46;;;;;;;;;;;;;;;17.92;59.19;97813.09;10326455;28;923;-78
2023/10/28 22:06:42;;;;;;;;;;;;;;;17.89;59.09;97801.91;10326197;28;936;-78
2023/10/28 22:11:38;;;;;;;;;;;;;;;17.88;58.96;97793.19;10325969;28;849;-78
2023/10/28 22:16:34;;;;;;;;;;;;;;;17.85;59.37;97780.22;10325973;28;1894;-78
2023/10/28 22:21:30;;;;;;;;;;;;;;;17.82;59.22;97777.84;10325296;28;869;-78
2023/10/28 22:26:26;;;;;;;;;;;;;;;17.81;59.07;97764.75;10325204;28;796;-78
2023/10/28 22:31:22;;;;;;;;;;;;;;;17.80;59.02;97768.38;10325302;28;1089;-78
2023/10/28 22:36:18;;;;;;;;;;;;;;;17.79;59.06;97758.72;10325527;28;1914;-78
2023/10/28 22:41:14;;;;;;;;;;;;;;;17.75;59.26;97751.06;10324790;28;949;-78
2023/10/28 22:46:10;;;;;;;;;;;;;;;17.75;59.12;97750.22;10325411;28;842;-78
2023/10/28 22:51:05;;;;;;;;;;;;;;;17.76;59.35;97733.44;10326307;28;1067;-78
2023/10/28 22:56:01;;;;;;;;;;;;;;;17.74;59.28;97727.47;10332501;28;1953;-78
2023/10/28 23:00:57;;;;;;;;;;;;;;;17.70;59.40;97716.31;10332415;28;765;-78
2023/10/28 23:05:53;;;;;;;;;;;;;;;17.68;59.47;97697.16;10332157;28;806;-78
2023/10/28 23:10:49;;;;;;;;;;;;;;;17.66;59.77;97682.44;10332565;28;948;-78
2023/10/28 23:15:45;;;;;;;;;;;;;;;17.66;59.58;97682.44;10331136;28;1965;-78
2023/10/28 23:20:41;;;;;;;;;;;;;;;17.63;59.43;97682.63;10331648;28;775;-78
2023/10/28 23:25:37;;;;;;;;;;;;;;;17.62;59.61;97687.06;10331445;28;853;-78
2023/10/28 23:30:34;;;;;;;;;;;;;;;17.61;59.54;97717.00;10331168;28;1128;-78
2023/10/28 23:35:29;;;;;;;;;;;;;;;17.58;59.55;97693.53;10330913;28;1914;-78
2023/10/28 23:40:26;;;;;;;;;;;;;;;17.57;59.55;97680.47;10330082;28;1007;-79
2023/10/28 23:45:21;;;;;;;;;;;;;;;17.55;59.72;97674.47;10330730;28;1042;-78
2023/10/28 23:50:17;;;;;;;;;;;;;;;17.52;59.80;97673.75;10330579;28;921;-77
2023/10/28 23:55:13;;;;;;;;;;;;;;;17.51;59.50;97656.25;10329720;28;1901;-78
